sensor_id;sensor_type;location;lat;lon;timestamp;pressure;altitude;pressure_sealevel;temperature;humidity
29163;BME280;20331;53.144;8.208;2022-08-03T00:01:23;101273.34;;;21.93;76.02
29163;BME280;20331;53.144;8.208;2022-08-03T00:11:44;101276.69;;;21.95;74.46
29163;BME280;20331;53.144;8.208;2022-08-03T00:22:06;101278.41;;;21.70;77.24
29163;BME280;20331;53.144;8.208;2022-08-03T00:32:27;101281.53;;;21.66;76.53
29163;BME280;20331;53.144;8.208;2022-08-03T00:42:50;101270.59;;;21.43;77.69
29163;BME280;20331;53.144;8.208;2022-08-03T00:53:13;101284.94;;;21.33;77.40
29163;BME280;20331;53.144;8.208;2022-08-03T01:03:35;101268.63;;;21.20;78.04
29163;BME280;20331;53.144;8.208;2022-08-03T01:14:03;101267.91;;;21.10;78.08
29163;BME280;20331;53.144;8.208;2022-08-03T01:25:10;101267.91;;;21.10;77.30
29163;BME280;20331;53.144;8.208;2022-08-03T01:35:43;101262.78;;;20.91;76.54
29163;BME280;20331;53.144;8.208;2022-08-03T01:46:06;101260.44;;;20.88;77.96
29163;BME280;20331;53.144;8.208;2022-08-03T01:56:30;101255.44;;;20.85;79.33
29163;BME280;20331;53.144;8.208;2022-08-03T02:06:52;101240.44;;;20.76;78.30
29163;BME280;20331;53.144;8.208;2022-08-03T02:17:25;101236.50;;;20.63;79.39
29163;BME280;20331;53.144;8.208;2022-08-03T02:28:11;101232.94;;;20.54;80.73
29163;BME280;20331;53.144;8.208;2022-08-03T02:38:40;101230.47;;;20.53;79.13
29163;BME280;20331;53.144;8.208;2022-08-03T02:49:02;101225.84;;;20.38;79.93
29163;BME280;20331;53.144;8.208;2022-08-03T02:59:44;101229.00;;;20.24;81.53
29163;BME280;20331;53.144;8.208;2022-08-03T03:10:07;101221.75;;;20.26;80.55
29163;BME280;20331;53.144;8.208;2022-08-03T03:20:30;101221.00;;;20.16;80.05
29163;BME280;20331;53.144;8.208;2022-08-03T03:30:53;101227.56;;;20.12;80.99
29163;BME280;20331;53.144;8.208;2022-08-03T03:41:15;101220.38;;;20.04;82.00
29163;BME280;20331;53.144;8.208;2022-08-03T03:51:36;101208.72;;;19.97;82.02
29163;BME280;20331;53.144;8.208;2022-08-03T04:01:58;101207.97;;;20.05;80.25
29163;BME280;20331;53.144;8.208;2022-08-03T04:12:21;101209.81;;;19.95;81.96
29163;BME280;20331;53.144;8.208;2022-08-03T04:22:44;101202.94;;;19.84;81.99
29163;BME280;20331;53.144;8.208;2022-08-03T04:33:08;101211.47;;;19.96;81.72
29163;BME280;20331;53.144;8.208;2022-08-03T04:43:32;101207.06;;;20.14;81.04
29163;BME280;20331;53.144;8.208;2022-08-03T04:53:54;101220.06;;;20.25;79.71
29163;BME280;20331;53.144;8.208;2022-08-03T05:04:16;101217.13;;;20.45;79.08
29163;BME280;20331;53.144;8.208;2022-08-03T05:14:38;101231.50;;;20.42;80.52
29163;BME280;20331;53.144;8.208;2022-08-03T05:25:00;101236.72;;;20.69;81.04
29163;BME280;20331;53.144;8.208;2022-08-03T05:35:22;101228.06;;;21.02;80.25
29163;BME280;20331;53.144;8.208;2022-08-03T05:46:05;101248.84;;;21.40;80.32
29163;BME280;20331;53.144;8.208;2022-08-03T05:56:32;101246.03;;;21.67;79.60
29163;BME280;20331;53.144;8.208;2022-08-03T06:06:54;101242.78;;;21.81;81.91
29163;BME280;20331;53.144;8.208;2022-08-03T06:17:15;101236.03;;;22.02;81.61
29163;BME280;20331;53.144;8.208;2022-08-03T06:27:37;101246.53;;;22.28;80.56
29163;BME280;20331;53.144;8.208;2022-08-03T06:38:00;101255.94;;;22.55;79.91
29163;BME280;20331;53.144;8.208;2022-08-03T06:48:22;101263.25;;;22.53;81.33
29163;BME280;20331;53.144;8.208;2022-08-03T06:58:43;101264.88;;;23.02;79.79
29163;BME280;20331;53.144;8.208;2022-08-03T07:09:05;101261.69;;;23.38;78.22
29163;BME280;20331;53.144;8.208;2022-08-03T07:19:27;101268.53;;;23.33;78.13
29163;BME280;20331;53.144;8.208;2022-08-03T07:29:48;101272.72;;;23.74;76.55
29163;BME280;20331;53.144;8.208;2022-08-03T07:40:10;101274.53;;;23.89;75.58
29163;BME280;20331;53.144;8.208;2022-08-03T07:50:31;101282.25;;;24.15;74.01
29163;BME280;20331;53.144;8.208;2022-08-03T08:00:53;101276.47;;;24.33;73.86
29163;BME280;20331;53.144;8.208;2022-08-03T08:11:15;101278.75;;;24.44;72.91
29163;BME280;20331;53.144;8.208;2022-08-03T08:21:36;101279.94;;;24.64;72.68
29163;BME280;20331;53.144;8.208;2022-08-03T08:32:18;101281.56;;;25.10;70.29
29163;BME280;20331;53.144;8.208;2022-08-03T08:42:41;101275.78;;;25.07;68.06
29163;BME280;20331;53.144;8.208;2022-08-03T08:53:20;101277.25;;;25.46;66.24
29163;BME280;20331;53.144;8.208;2022-08-03T09:03:47;101280.63;;;25.69;66.09
29163;BME280;20331;53.144;8.208;2022-08-03T09:14:10;101281.75;;;26.03;65.12
29163;BME280;20331;53.144;8.208;2022-08-03T09:24:59;101269.09;;;26.12;64.83
29163;BME280;20331;53.144;8.208;2022-08-03T09:35:42;101260.31;;;26.74;61.10
29163;BME280;20331;53.144;8.208;2022-08-03T09:46:19;101257.13;;;27.06;60.25
29163;BME280;20331;53.144;8.208;2022-08-03T09:56:42;101261.47;;;27.34;57.98
29163;BME280;20331;53.144;8.208;2022-08-03T10:07:09;101256.97;;;27.75;55.85
29163;BME280;20331;53.144;8.208;2022-08-03T10:17:31;101263.88;;;27.97;55.38
29163;BME280;20331;53.144;8.208;2022-08-03T10:28:01;101266.88;;;27.81;59.88
29163;BME280;20331;53.144;8.208;2022-08-03T10:38:43;101248.81;;;27.96;57.07
29163;BME280;20331;53.144;8.208;2022-08-03T10:49:11;101260.56;;;28.54;53.61
29163;BME280;20331;53.144;8.208;2022-08-03T11:10:30;101243.66;;;29.44;49.66
29163;BME280;20331;53.144;8.208;2022-08-03T11:20:59;101240.59;;;29.98;47.94
29163;BME280;20331;53.144;8.208;2022-08-03T11:52:42;101232.38;;;31.10;45.36
29163;BME280;20331;53.144;8.208;2022-08-03T12:03:10;101226.81;;;31.47;43.30
29163;BME280;20331;53.144;8.208;2022-08-03T12:13:47;101231.59;;;31.27;43.28
29163;BME280;20331;53.144;8.208;2022-08-03T12:24:39;101224.06;;;30.87;43.28
29163;BME280;20331;53.144;8.208;2022-08-03T12:35:01;101219.06;;;30.90;45.87
29163;BME280;20331;53.144;8.208;2022-08-03T12:45:28;101214.09;;;30.69;43.98
29163;BME280;20331;53.144;8.208;2022-08-03T12:56:00;101214.75;;;30.28;44.97
29163;BME280;20331;53.144;8.208;2022-08-03T13:06:26;101222.44;;;30.24;46.30
29163;BME280;20331;53.144;8.208;2022-08-03T13:16:48;101217.28;;;30.23;44.64
29163;BME280;20331;53.144;8.208;2022-08-03T13:27:10;101218.84;;;30.37;42.49
29163;BME280;20331;53.144;8.208;2022-08-03T13:37:52;101202.34;;;30.27;46.20
29163;BME280;20331;53.144;8.208;2022-08-03T13:48:14;101197.31;;;30.67;50.93
29163;BME280;20331;53.144;8.208;2022-08-03T13:58:56;101195.50;;;30.61;42.74
29163;BME280;20331;53.144;8.208;2022-08-03T14:09:17;101192.81;;;31.10;43.59
29163;BME280;20331;53.144;8.208;2022-08-03T14:19:39;101187.03;;;31.07;40.15
29163;BME280;20331;53.144;8.208;2022-08-03T14:30:14;101188.00;;;31.30;41.47
29163;BME280;20331;53.144;8.208;2022-08-03T14:40:35;101177.56;;;31.58;39.54
29163;BME280;20331;53.144;8.208;2022-08-03T14:50:57;101179.19;;;31.59;39.07
29163;BME280;20331;53.144;8.208;2022-08-03T15:01:19;101170.66;;;31.26;43.89
29163;BME280;20331;53.144;8.208;2022-08-03T15:12:00;101164.34;;;31.50;41.29
29163;BME280;20331;53.144;8.208;2022-08-03T15:22:22;101166.69;;;31.46;41.22
29163;BME280;20331;53.144;8.208;2022-08-03T15:32:54;101160.16;;;31.54;41.93
29163;BME280;20331;53.144;8.208;2022-08-03T15:43:16;101156.63;;;31.71;41.60
29163;BME280;20331;53.144;8.208;2022-08-03T15:53:38;101152.53;;;31.69;44.18
29163;BME280;20331;53.144;8.208;2022-08-03T16:03:59;101151.59;;;31.75;38.81
29163;BME280;20331;53.144;8.208;2022-08-03T16:14:21;101149.13;;;32.03;40.26
29163;BME280;20331;53.144;8.208;2022-08-03T16:24:56;101145.97;;;32.06;42.26
29163;BME280;20331;53.144;8.208;2022-08-03T16:35:17;101156.06;;;32.40;42.82
29163;BME280;20331;53.144;8.208;2022-08-03T16:45:41;101151.63;;;32.56;41.36
29163;BME280;20331;53.144;8.208;2022-08-03T16:56:03;101149.00;;;32.39;39.98
29163;BME280;20331;53.144;8.208;2022-08-03T17:06:33;101147.84;;;32.05;41.88
29163;BME280;20331;53.144;8.208;2022-08-03T17:16:58;101150.09;;;31.79;42.52
29163;BME280;20331;53.144;8.208;2022-08-03T17:27:27;101149.69;;;31.93;42.16
29163;BME280;20331;53.144;8.208;2022-08-03T17:38:11;101157.31;;;31.67;43.77
29163;BME280;20331;53.144;8.208;2022-08-03T17:48:38;101168.25;;;31.72;44.04
29163;BME280;20331;53.144;8.208;2022-08-03T18:09:31;101211.34;;;28.09;68.33
29163;BME280;20331;53.144;8.208;2022-08-03T18:20:14;101230.94;;;27.29;71.97
29163;BME280;20331;53.144;8.208;2022-08-03T18:30:55;101232.75;;;26.73;73.19
29163;BME280;20331;53.144;8.208;2022-08-03T18:41:18;101248.00;;;26.37;75.02
29163;BME280;20331;53.144;8.208;2022-08-03T18:52:14;101256.59;;;25.98;78.04
29163;BME280;20331;53.144;8.208;2022-08-03T19:02:46;101244.91;;;25.84;78.45
29163;BME280;20331;53.144;8.208;2022-08-03T19:13:37;101273.84;;;25.38;81.05
29163;BME280;20331;53.144;8.208;2022-08-03T19:24:06;101276.66;;;24.99;81.45
29163;BME280;20331;53.144;8.208;2022-08-03T19:34:31;101275.44;;;24.87;82.85
29163;BME280;20331;53.144;8.208;2022-08-03T19:44:59;101290.28;;;24.67;83.21
29163;BME280;20331;53.144;8.208;2022-08-03T19:55:37;101290.56;;;24.42;83.63
29163;BME280;20331;53.144;8.208;2022-08-03T20:06:09;101291.59;;;24.11;84.97
29163;BME280;20331;53.144;8.208;2022-08-03T20:16:37;101292.34;;;23.89;86.75
29163;BME280;20331;53.144;8.208;2022-08-03T20:26:59;101278.09;;;23.58;88.16
29163;BME280;20331;53.144;8.208;2022-08-03T20:37:21;101280.47;;;23.53;89.23
29163;BME280;20331;53.144;8.208;2022-08-03T20:47:43;101281.44;;;23.60;88.58
29163;BME280;20331;53.144;8.208;2022-08-03T20:58:12;101269.53;;;23.40;90.17
29163;BME280;20331;53.144;8.208;2022-08-03T21:08:37;101273.22;;;23.23;91.59
29163;BME280;20331;53.144;8.208;2022-08-03T21:19:07;101260.94;;;23.06;92.42
29163;BME280;20331;53.144;8.208;2022-08-03T21:29:31;101260.25;;;22.96;92.99
29163;BME280;20331;53.144;8.208;2022-08-03T21:39:54;101255.91;;;22.71;94.84
29163;BME280;20331;53.144;8.208;2022-08-03T21:50:16;101247.63;;;22.82;94.05
29163;BME280;20331;53.144;8.208;2022-08-03T22:00:41;101242.94;;;22.37;96.07
29163;BME280;20331;53.144;8.208;2022-08-03T22:11:04;101234.66;;;22.47;97.04
29163;BME280;20331;53.144;8.208;2022-08-03T22:21:29;101229.66;;;22.44;97.94
29163;BME280;20331;53.144;8.208;2022-08-03T22:31:56;101224.69;;;22.49;94.44
29163;BME280;20331;53.144;8.208;2022-08-03T22:42:21;101228.31;;;22.33;98.23
29163;BME280;20331;53.144;8.208;2022-08-03T22:52:43;101221.28;;;22.16;99.06
29163;BME280;20331;53.144;8.208;2022-08-03T23:03:05;101229.28;;;22.32;96.63
29163;BME280;20331;53.144;8.208;2022-08-03T23:13:30;101218.63;;;22.08;99.74
29163;BME280;20331;53.144;8.208;2022-08-03T23:23:52;101214.16;;;22.24;98.02
29163;BME280;20331;53.144;8.208;2022-08-03T23:34:15;101205.16;;;22.09;99.79
29163;BME280;20331;53.144;8.208;2022-08-03T23:44:56;101196.84;;;21.96;100.00
29163;BME280;20331;53.144;8.208;2022-08-03T23:55:35;101197.06;;;22.11;98.99
